Al Muharraq, Bahrain
Current Conditions -  °F | °C
As of 6:00 PM on Wednesday 26 Nov 2014 (Local Time) from OBBI Reporting Station
Scattered Clouds Scattered Clouds  
Wind Chill: 75°   Ceiling: Unl
Heat Index: 75°   Visibility: 5mi
Dew Point: 61°   Wind: 12mph
Humidity: 61%   Direction: 330°NNW
Pressure: 30"   Gusts: NA
Location:  26.26°N, 50.62°E
Report Text: OBBI 261500Z 33010KT 8000 SCT030 24/16 Q1016 NOSIG
Loading
Personal Weather Stations






























Interactive Weather Map New forecast layout! Learn more

10-Day Weather Forecast

Advertisements
Track Severe Weather on mobile